Time;durP1;ratioP1;P1;durP2;ratioP2;P2;SDS_P1;SDS_P2;PMS_P1;PMS_P2;Temp;Humidity;BMP_temperature;BMP_pressure;BME280_temperature;BME280_humidity;BME280_pressure;Samples;Min_cycle;Max_cycle;Signal;HPM_P1;HPM_P2
2023/08/10 00:02:23;;;;;;;8.30;2.50;;;;;;;;;;5006721;28;20641;-59
2023/08/10 00:04:48;;;;;;;10.45;2.80;;;;;;;;;;5011550;28;20293;-59
2023/08/10 00:07:14;;;;;;;5.63;2.60;;;;;;;;;;5006489;28;20698;-59
2023/08/10 00:09:39;;;;;;;8.73;2.50;;;;;;;;;;5002675;28;20325;-59
2023/08/10 00:12:05;;;;;;;7.90;2.42;;;;;;;;;;5001406;28;20216;-59
2023/08/10 00:14:30;;;;;;;10.60;2.55;;;;;;;;;;5005723;28;20216;-59
2023/08/10 00:16:55;;;;;;;8.05;2.67;;;;;;;;;;5003494;28;21243;-59
2023/08/10 00:19:21;;;;;;;8.88;2.63;;;;;;;;;;5007943;28;20223;-59
2023/08/10 00:21:46;;;;;;;6.15;2.40;;;;;;;;;;5008249;28;20704;-59
2023/08/10 00:24:11;;;;;;;10.43;3.10;;;;;;;;;;5006303;28;20211;-59
2023/08/10 00:26:37;;;;;;;9.00;2.22;;;;;;;;;;5007920;28;20223;-59
2023/08/10 00:29:03;;;;;;;7.18;2.20;;;;;;;;;;5008818;28;20224;-59
2023/08/10 00:31:28;;;;;;;6.85;2.22;;;;;;;;;;5012000;28;20775;-59
2023/08/10 00:33:54;;;;;;;6.38;2.40;;;;;;;;;;5000327;28;20219;-59
2023/08/10 00:36:19;;;;;;;7.20;2.30;;;;;;;;;;4999436;28;20224;-59
2023/08/10 00:38:44;;;;;;;11.50;2.40;;;;;;;;;;5001676;28;20264;-59
2023/08/10 00:41:10;;;;;;;7.68;2.35;;;;;;;;;;5006649;28;20212;-59
2023/08/10 00:43:35;;;;;;;12.82;2.33;;;;;;;;;;5006087;28;20695;-59
2023/08/10 00:46:00;;;;;;;5.32;2.00;;;;;;;;;;5007149;28;20644;-60
2023/08/10 00:48:26;;;;;;;6.25;2.35;;;;;;;;;;5006007;28;20216;-59
2023/08/10 00:50:52;;;;;;;5.75;1.92;;;;;;;;;;5006147;28;20252;-59
2023/08/10 00:53:17;;;;;;;6.38;2.10;;;;;;;;;;4990040;28;20212;-59
2023/08/10 00:55:43;;;;;;;7.45;2.28;;;;;;;;;;5000896;28;20293;-59
2023/08/10 00:58:11;;;;;;;7.35;2.30;;;;;;;;;;4998263;28;20555;-59
2023/08/10 01:00:36;;;;;;;6.68;2.03;;;;;;;;;;5000183;28;20231;-59
2023/08/10 01:03:01;;;;;;;7.10;2.00;;;;;;;;;;5007640;28;20208;-59
2023/08/10 01:05:27;;;;;;;4.45;1.90;;;;;;;;;;5006117;28;20561;-59
2023/08/10 01:07:54;;;;;;;8.25;2.00;;;;;;;;;;5005202;28;20239;-59
2023/08/10 01:10:23;;;;;;;8.43;2.10;;;;;;;;;;5006215;28;20214;-59
2023/08/10 01:12:49;;;;;;;7.50;2.20;;;;;;;;;;5011309;28;20816;-59
2023/08/10 01:15:20;;;;;;;6.88;2.20;;;;;;;;;;5006462;28;20221;-59
2023/08/10 01:17:48;;;;;;;7.10;2.10;;;;;;;;;;5002463;28;20216;-59
2023/08/10 01:20:13;;;;;;;6.97;2.20;;;;;;;;;;4999255;28;20219;-59
2023/08/10 01:22:45;;;;;;;9.13;2.28;;;;;;;;;;4998491;28;20451;-59
2023/08/10 01:25:10;;;;;;;8.02;3.05;;;;;;;;;;5001472;28;20743;-59
2023/08/10 01:27:35;;;;;;;7.38;2.03;;;;;;;;;;5008762;28;20216;-59
2023/08/10 01:30:01;;;;;;;6.60;1.98;;;;;;;;;;5011861;28;20303;-59
2023/08/10 01:32:28;;;;;;;6.07;2.33;;;;;;;;;;5006672;28;20212;-59
2023/08/10 01:34:54;;;;;;;6.10;1.83;;;;;;;;;;5007761;28;20223;-59
2023/08/10 01:37:19;;;;;;;5.47;2.10;;;;;;;;;;5010999;28;20224;-59
2023/08/10 01:39:45;;;;;;;8.15;2.20;;;;;;;;;;5002608;28;20240;-59
2023/08/10 01:42:11;;;;;;;8.40;2.08;;;;;;;;;;5003976;28;20220;-59
2023/08/10 01:44:36;;;;;;;6.97;2.25;;;;;;;;;;5002088;28;20270;-60
2023/08/10 01:47:03;;;;;;;8.02;2.28;;;;;;;;;;5000583;28;20687;-60
2023/08/10 01:49:29;;;;;;;7.68;2.22;;;;;;;;;;5004349;28;20724;-59
2023/08/10 01:51:55;;;;;;;8.32;2.03;;;;;;;;;;5007711;28;20687;-60
2023/08/10 01:54:20;;;;;;;5.85;2.03;;;;;;;;;;5010001;28;20258;-60
2023/08/10 01:56:45;;;;;;;6.22;2.10;;;;;;;;;;5005526;28;20219;-59
2023/08/10 01:59:11;;;;;;;7.50;2.08;;;;;;;;;;5005878;28;20235;-60
2023/08/10 02:01:36;;;;;;;9.02;2.50;;;;;;;;;;5005434;28;20216;-59
2023/08/10 02:04:01;;;;;;;7.28;1.90;;;;;;;;;;4998283;28;20243;-60
2023/08/10 02:06:27;;;;;;;5.65;2.10;;;;;;;;;;4998473;28;20729;-59
2023/08/10 02:08:52;;;;;;;8.88;2.28;;;;;;;;;;5001159;28;20558;-59
2023/08/10 02:11:17;;;;;;;11.48;2.90;;;;;;;;;;5004989;28;20671;-59
2023/08/10 02:13:43;;;;;;;8.60;2.20;;;;;;;;;;5004920;28;20235;-59
2023/08/10 02:16:08;;;;;;;8.85;2.40;;;;;;;;;;5005879;28;20519;-60
2023/08/10 02:18:33;;;;;;;5.72;1.80;;;;;;;;;;5009545;28;20234;-59
2023/08/10 02:21:00;;;;;;;7.85;2.33;;;;;;;;;;5005645;28;20299;-59
2023/08/10 02:23:26;;;;;;;8.18;2.17;;;;;;;;;;5005719;28;20224;-59
2023/08/10 02:25:51;;;;;;;10.55;2.30;;;;;;;;;;5003145;28;20224;-59
2023/08/10 02:28:17;;;;;;;9.32;2.30;;;;;;;;;;4997020;28;20207;-59
2023/08/10 02:30:43;;;;;;;6.97;2.47;;;;;;;;;;4996303;28;21139;-59
2023/08/10 02:33:08;;;;;;;7.55;2.10;;;;;;;;;;5005353;28;20216;-59
2023/08/10 02:35:33;;;;;;;5.90;2.00;;;;;;;;;;5005769;28;20710;-59
2023/08/10 02:37:59;;;;;;;7.63;2.30;;;;;;;;;;5004714;28;20235;-59
2023/08/10 02:40:24;;;;;;;10.27;2.58;;;;;;;;;;5006782;28;20331;-59
2023/08/10 02:42:49;;;;;;;6.68;2.00;;;;;;;;;;5006363;28;20212;-59
2023/08/10 02:45:15;;;;;;;7.35;2.20;;;;;;;;;;5007576;28;20208;-59
2023/08/10 02:47:41;;;;;;;5.90;2.22;;;;;;;;;;5026187;28;20235;-59
2023/08/10 02:50:06;;;;;;;6.85;2.20;;;;;;;;;;5025507;28;20258;-59
2023/08/10 02:52:31;;;;;;;8.93;2.13;;;;;;;;;;5030486;28;20651;-59
2023/08/10 02:54:57;;;;;;;6.57;2.30;;;;;;;;;;5031535;28;20228;-59
2023/08/10 02:57:22;;;;;;;9.07;2.72;;;;;;;;;;5028878;28;20238;-59
2023/08/10 02:59:47;;;;;;;6.82;2.10;;;;;;;;;;5030659;28;20346;-59
2023/08/10 03:02:16;;;;;;;10.23;2.13;;;;;;;;;;5030784;28;20226;-59
2023/08/10 03:04:41;;;;;;;7.75;2.50;;;;;;;;;;5029888;28;20211;-59
2023/08/10 03:07:06;;;;;;;7.18;2.28;;;;;;;;;;5028670;28;20274;-59
2023/08/10 03:09:32;;;;;;;8.27;2.47;;;;;;;;;;5031161;28;20204;-59
2023/08/10 03:11:58;;;;;;;8.43;2.30;;;;;;;;;;5030050;28;20731;-59
2023/08/10 03:14:23;;;;;;;9.52;2.70;;;;;;;;;;5033622;28;20215;-59
2023/08/10 03:16:48;;;;;;;9.95;2.25;;;;;;;;;;5032017;28;20223;-59
2023/08/10 03:19:14;;;;;;;5.32;2.10;;;;;;;;;;5032720;28;20227;-60
2023/08/10 03:21:39;;;;;;;7.35;2.20;;;;;;;;;;5034096;28;20258;-59
2023/08/10 03:24:04;;;;;;;3.67;1.75;;;;;;;;;;5033492;28;20568;-60
2023/08/10 03:26:30;;;;;;;6.07;2.60;;;;;;;;;;5033027;28;20215;-59
2023/08/10 03:28:55;;;;;;;3.78;1.80;;;;;;;;;;5033733;28;20220;-59
2023/08/10 03:31:23;;;;;;;6.47;1.98;;;;;;;;;;5033094;28;20226;-59
2023/08/10 03:33:48;;;;;;;8.18;2.20;;;;;;;;;;5032906;28;20248;-59
2023/08/10 03:36:15;;;;;;;7.55;2.20;;;;;;;;;;5032999;28;20239;-59
2023/08/10 03:38:40;;;;;;;8.75;2.00;;;;;;;;;;5033718;28;20220;-59
2023/08/10 03:41:05;;;;;;;5.57;2.08;;;;;;;;;;5032358;28;20222;-59
2023/08/10 03:43:31;;;;;;;5.78;2.17;;;;;;;;;;5032188;28;20204;-59
2023/08/10 03:45:56;;;;;;;6.60;2.03;;;;;;;;;;5033120;28;20211;-59
2023/08/10 03:48:21;;;;;;;6.40;1.80;;;;;;;;;;5031968;28;20234;-59
2023/08/10 03:50:47;;;;;;;6.55;1.98;;;;;;;;;;5032990;28;20208;-59
2023/08/10 03:53:13;;;;;;;6.78;2.15;;;;;;;;;;5032705;28;20218;-59
2023/08/10 03:55:38;;;;;;;7.03;2.20;;;;;;;;;;5032616;28;20214;-59
2023/08/10 03:58:03;;;;;;;5.60;1.90;;;;;;;;;;5032429;28;20228;-60
2023/08/10 04:00:28;;;;;;;10.32;2.13;;;;;;;;;;5033162;28;20295;-59
2023/08/10 04:02:54;;;;;;;6.97;2.00;;;;;;;;;;5031608;28;20274;-59
2023/08/10 04:05:19;;;;;;;9.23;1.83;;;;;;;;;;5032572;28;20231;-59
2023/08/10 04:07:44;;;;;;;4.60;1.90;;;;;;;;;;5032987;28;20261;-59
2023/08/10 04:10:10;;;;;;;6.10;2.03;;;;;;;;;;5031858;28;20238;-59
2023/08/10 04:12:35;;;;;;;6.75;2.40;;;;;;;;;;5033055;28;20216;-59
2023/08/10 04:15:02;;;;;;;8.80;2.13;;;;;;;;;;5032559;28;20705;-60
2023/08/10 04:17:27;;;;;;;9.43;2.30;;;;;;;;;;5031847;28;20220;-59
2023/08/10 04:19:52;;;;;;;7.32;2.10;;;;;;;;;;5032832;28;20234;-59
2023/08/10 04:22:18;;;;;;;7.82;2.17;;;;;;;;;;5031508;28;20687;-59
2023/08/10 04:24:43;;;;;;;5.95;2.05;;;;;;;;;;5032882;28;20231;-59
2023/08/10 04:27:09;;;;;;;6.20;2.08;;;;;;;;;;5032241;28;20211;-60
2023/08/10 04:29:34;;;;;;;8.38;2.35;;;;;;;;;;5031917;28;20212;-59
2023/08/10 04:31:59;;;;;;;6.07;2.00;;;;;;;;;;5032507;28;20239;-59
2023/08/10 04:34:24;;;;;;;6.22;2.10;;;;;;;;;;5031945;28;20216;-59
2023/08/10 04:36:50;;;;;;;7.35;2.50;;;;;;;;;;5031452;28;20244;-59
2023/08/10 04:39:16;;;;;;;6.72;2.10;;;;;;;;;;5028575;28;20216;-59
2023/08/10 04:41:41;;;;;;;6.65;2.35;;;;;;;;;;5001805;28;20204;-59
2023/08/10 04:44:07;;;;;;;6.55;2.13;;;;;;;;;;4995030;28;20225;-59
2023/08/10 04:46:32;;;;;;;9.70;2.25;;;;;;;;;;4994963;28;20212;-59
2023/08/10 04:48:57;;;;;;;7.53;2.10;;;;;;;;;;4998196;28;20231;-60
2023/08/10 04:51:22;;;;;;;9.38;1.90;;;;;;;;;;5001341;28;20242;-60
2023/08/10 04:53:48;;;;;;;6.82;1.98;;;;;;;;;;5002621;28;20273;-60
2023/08/10 04:56:13;;;;;;;5.07;1.83;;;;;;;;;;5002359;28;20224;-59
2023/08/10 04:58:38;;;;;;;6.22;2.00;;;;;;;;;;5002074;28;20245;-59
2023/08/10 05:01:04;;;;;;;6.38;1.98;;;;;;;;;;5002380;28;20258;-59
2023/08/10 05:03:29;;;;;;;7.65;2.00;;;;;;;;;;5001728;28;20204;-59
2023/08/10 05:05:55;;;;;;;5.90;2.00;;;;;;;;;;4994346;28;20310;-59
2023/08/10 05:08:21;;;;;;;8.45;2.00;;;;;;;;;;5011636;28;20277;-59
2023/08/10 05:10:47;;;;;;;6.45;1.70;;;;;;;;;;5010356;28;20254;-59
2023/08/10 05:13:12;;;;;;;8.20;2.40;;;;;;;;;;5024998;28;20484;-60
2023/08/10 05:15:37;;;;;;;36.33;4.40;;;;;;;;;;5027488;28;20219;-60
2023/08/10 05:18:03;;;;;;;6.03;1.75;;;;;;;;;;5025996;28;20238;-59
2023/08/10 05:20:28;;;;;;;8.20;2.00;;;;;;;;;;5027807;28;20211;-60
2023/08/10 05:22:54;;;;;;;6.82;2.08;;;;;;;;;;5028942;28;20273;-60
2023/08/10 05:25:19;;;;;;;6.25;2.05;;;;;;;;;;5027080;28;20246;-59
2023/08/10 05:27:45;;;;;;;8.27;1.90;;;;;;;;;;5026845;28;20219;-59
2023/08/10 05:30:11;;;;;;;9.32;2.10;;;;;;;;;;5028397;28;20225;-59
2023/08/10 05:32:39;;;;;;;9.07;2.25;;;;;;;;;;5027497;28;20674;-60
2023/08/10 05:35:04;;;;;;;6.70;1.92;;;;;;;;;;5024888;28;20338;-60
2023/08/10 05:37:30;;;;;;;6.20;2.13;;;;;;;;;;5027020;28;20922;-60
2023/08/10 05:39:56;;;;;;;5.22;1.85;;;;;;;;;;5027362;28;20222;-59
2023/08/10 05:42:21;;;;;;;5.72;1.73;;;;;;;;;;5026154;28;20215;-60
2023/08/10 05:44:47;;;;;;;5.10;1.60;;;;;;;;;;5027881;28;20232;-60
2023/08/10 05:47:12;;;;;;;6.70;1.92;;;;;;;;;;5027549;28;20219;-61
2023/08/10 05:49:37;;;;;;;6.23;2.10;;;;;;;;;;5026273;28;20429;-60
2023/08/10 05:52:03;;;;;;;5.68;1.80;;;;;;;;;;5026731;28;20600;-59
2023/08/10 05:54:28;;;;;;;7.10;2.00;;;;;;;;;;5027267;28;20466;-60
2023/08/10 05:56:55;;;;;;;5.20;1.70;;;;;;;;;;5028383;28;20635;-59
2023/08/10 05:59:20;;;;;;;6.50;2.20;;;;;;;;;;5025124;28;20231;-60
2023/08/10 06:01:47;;;;;;;8.27;2.15;;;;;;;;;;5027461;28;20215;-59
2023/08/10 06:04:12;;;;;;;5.40;2.15;;;;;;;;;;5026905;28;20306;-60
2023/08/10 06:06:38;;;;;;;6.78;2.30;;;;;;;;;;5026342;28;20743;-59
2023/08/10 06:09:04;;;;;;;5.38;2.55;;;;;;;;;;5025775;28;20199;-59
2023/08/10 06:11:30;;;;;;;7.97;2.30;;;;;;;;;;5028381;28;20228;-59
2023/08/10 06:13:55;;;;;;;9.75;2.40;;;;;;;;;;5027300;28;20216;-60
2023/08/10 06:16:21;;;;;;;5.38;2.08;;;;;;;;;;5025183;28;20224;-59
2023/08/10 06:18:46;;;;;;;7.88;2.40;;;;;;;;;;5028142;28;20258;-59
2023/08/10 06:21:13;;;;;;;8.30;2.20;;;;;;;;;;5027885;28;20211;-59
2023/08/10 06:23:38;;;;;;;9.80;2.90;;;;;;;;;;5024926;28;20219;-59
2023/08/10 06:26:05;;;;;;;7.32;2.65;;;;;;;;;;5028619;28;20203;-59
2023/08/10 06:28:30;;;;;;;8.65;3.17;;;;;;;;;;5031958;28;20219;-59
2023/08/10 06:30:55;;;;;;;6.20;2.53;;;;;;;;;;5030241;28;20670;-60
2023/08/10 06:33:21;;;;;;;5.40;2.63;;;;;;;;;;5030591;28;20298;-60
2023/08/10 06:35:47;;;;;;;8.43;2.55;;;;;;;;;;5030953;28;20357;-60
2023/08/10 06:38:12;;;;;;;4.65;2.22;;;;;;;;;;5031019;28;20315;-60
2023/08/10 06:40:37;;;;;;;8.05;2.63;;;;;;;;;;5029756;28;20218;-60
2023/08/10 06:43:03;;;;;;;7.18;2.45;;;;;;;;;;5030418;28;20204;-60
2023/08/10 06:45:28;;;;;;;4.38;2.10;;;;;;;;;;5032054;28;20292;-60
2023/08/10 06:47:54;;;;;;;7.20;3.05;;;;;;;;;;5029875;28;20691;-59
2023/08/10 06:50:19;;;;;;;6.47;2.78;;;;;;;;;;5029995;28;20538;-60
2023/08/10 06:52:45;;;;;;;6.95;2.67;;;;;;;;;;5031523;28;20343;-60
2023/08/10 06:55:11;;;;;;;8.85;3.10;;;;;;;;;;5029561;28;20203;-59
2023/08/10 06:57:37;;;;;;;6.50;2.90;;;;;;;;;;5028186;28;20640;-60
2023/08/10 07:00:04;;;;;;;9.13;2.92;;;;;;;;;;5030989;28;20718;-59
2023/08/10 07:02:29;;;;;;;7.07;2.90;;;;;;;;;;5030060;28;20215;-60
2023/08/10 07:04:54;;;;;;;6.38;2.70;;;;;;;;;;5028121;28;20277;-60
2023/08/10 07:07:20;;;;;;;5.18;2.63;;;;;;;;;;5022401;28;20596;-60
2023/08/10 07:09:46;;;;;;;6.28;2.63;;;;;;;;;;5031294;28;20216;-60
2023/08/10 07:12:11;;;;;;;5.35;2.38;;;;;;;;;;5028744;28;20214;-60
2023/08/10 07:14:37;;;;;;;5.80;2.10;;;;;;;;;;5030187;28;20216;-60
2023/08/10 07:17:02;;;;;;;5.82;2.30;;;;;;;;;;5030952;28;20216;-60
2023/08/10 07:19:27;;;;;;;6.10;1.95;;;;;;;;;;5029847;28;20235;-60
2023/08/10 07:21:55;;;;;;;6.13;2.40;;;;;;;;;;5011367;28;20216;-59
2023/08/10 07:24:22;;;;;;;8.55;2.78;;;;;;;;;;5030573;28;20694;-60
2023/08/10 07:26:48;;;;;;;5.78;2.30;;;;;;;;;;5030276;28;20748;-60
2023/08/10 07:29:13;;;;;;;5.10;2.13;;;;;;;;;;5028309;28;20216;-60
2023/08/10 07:31:38;;;;;;;7.78;2.63;;;;;;;;;;5030481;28;20211;-59
2023/08/10 07:34:04;;;;;;;7.00;2.03;;;;;;;;;;5029686;28;20299;-60
2023/08/10 07:36:29;;;;;;;6.03;2.30;;;;;;;;;;5029791;28;20373;-60
2023/08/10 07:38:55;;;;;;;7.35;2.45;;;;;;;;;;5027943;28;20232;-60
2023/08/10 07:41:22;;;;;;;6.82;2.20;;;;;;;;;;5029120;28;20228;-60
2023/08/10 07:43:47;;;;;;;7.00;2.50;;;;;;;;;;5030410;28;20306;-60
2023/08/10 07:46:12;;;;;;;6.88;2.38;;;;;;;;;;5027248;28;20290;-60
2023/08/10 07:48:37;;;;;;;4.97;2.17;;;;;;;;;;5030678;28;20712;-60
2023/08/10 07:51:03;;;;;;;6.15;2.50;;;;;;;;;;5030090;28;20212;-60
2023/08/10 07:53:28;;;;;;;5.15;2.20;;;;;;;;;;5028025;28;21324;-60
2023/08/10 07:55:54;;;;;;;6.47;2.30;;;;;;;;;;5029616;28;20211;-60
2023/08/10 07:58:20;;;;;;;5.82;2.10;;;;;;;;;;5030022;28;20234;-60
2023/08/10 08:00:45;;;;;;;5.68;2.22;;;;;;;;;;5028945;28;20208;-60
2023/08/10 08:03:11;;;;;;;3.90;1.70;;;;;;;;;;5028277;28;20220;-60
2023/08/10 08:05:37;;;;;;;5.72;1.95;;;;;;;;;;5030415;28;20223;-60
2023/08/10 08:08:03;;;;;;;3.95;1.92;;;;;;;;;;5029237;28;20299;-60
2023/08/10 08:10:29;;;;;;;5.82;1.70;;;;;;;;;;5027716;28;20233;-60
2023/08/10 08:12:54;;;;;;;3.75;1.77;;;;;;;;;;5030340;28;20247;-60
2023/08/10 08:15:21;;;;;;;4.72;1.80;;;;;;;;;;5028881;28;20241;-60
2023/08/10 08:18:05;;;;;;;3.90;1.70;;;;;;;;;;5028823;28;20579;-59
2023/08/10 08:20:30;;;;;;;5.40;1.77;;;;;;;;;;5027788;28;20216;-60
2023/08/10 08:22:56;;;;;;;4.38;1.83;;;;;;;;;;5027833;28;20301;-60
2023/08/10 08:25:21;;;;;;;5.95;1.60;;;;;;;;;;5029456;28;20667;-60
2023/08/10 08:27:47;;;;;;;5.47;1.70;;;;;;;;;;5027810;28;20223;-60
2023/08/10 08:30:12;;;;;;;6.25;1.75;;;;;;;;;;5028347;28;20204;-60
2023/08/10 08:32:38;;;;;;;6.55;1.92;;;;;;;;;;5030052;28;20216;-60
2023/08/10 08:35:03;;;;;;;4.88;1.42;;;;;;;;;;5028006;28;20738;-60
2023/08/10 08:37:28;;;;;;;4.47;1.50;;;;;;;;;;5027650;28;20757;-60
2023/08/10 08:39:54;;;;;;;3.70;1.50;;;;;;;;;;5029463;28;20756;-60
2023/08/10 08:42:19;;;;;;;3.75;1.23;;;;;;;;;;5028870;28;20219;-60
2023/08/10 08:44:44;;;;;;;3.30;1.15;;;;;;;;;;5026901;28;20230;-60
2023/08/10 08:47:09;;;;;;;4.45;1.23;;;;;;;;;;5029183;28;20222;-60
2023/08/10 08:49:35;;;;;;;2.85;1.20;;;;;;;;;;5028543;28;20222;-59
2023/08/10 08:52:01;;;;;;;4.60;1.20;;;;;;;;;;5027103;28;20741;-60
2023/08/10 08:54:27;;;;;;;5.65;1.35;;;;;;;;;;5029000;28;20228;-60
2023/08/10 08:56:52;;;;;;;3.10;1.17;;;;;;;;;;5027196;28;20291;-60
2023/08/10 08:59:18;;;;;;;3.88;1.35;;;;;;;;;;5027362;28;20378;-60
2023/08/10 09:01:43;;;;;;;5.03;1.25;;;;;;;;;;5028038;28;20211;-59
2023/08/10 09:04:09;;;;;;;4.15;1.25;;;;;;;;;;5026752;28;20317;-60
2023/08/10 09:06:34;;;;;;;3.30;1.17;;;;;;;;;;5028907;28;20559;-60
2023/08/10 09:08:59;;;;;;;5.82;1.67;;;;;;;;;;5026560;28;20211;-59
2023/08/10 09:11:25;;;;;;;5.70;1.42;;;;;;;;;;5027236;28;20219;-60
2023/08/10 09:14:05;;;;;;;4.68;1.70;;;;;;;;;;5029323;28;20220;-59
2023/08/10 09:16:30;;;;;;;4.57;1.40;;;;;;;;;;5027715;28;20211;-60
2023/08/10 09:18:55;;;;;;;4.78;1.40;;;;;;;;;;5027306;28;20242;-60
2023/08/10 09:21:23;;;;;;;4.43;1.70;;;;;;;;;;5027115;28;20334;-60
2023/08/10 09:23:49;;;;;;;5.70;1.83;;;;;;;;;;5027319;28;20214;-60
2023/08/10 09:26:16;;;;;;;6.60;1.55;;;;;;;;;;5025041;28;20208;-60
2023/08/10 09:28:41;;;;;;;5.03;1.70;;;;;;;;;;5029031;28;20227;-59
2023/08/10 09:31:09;;;;;;;3.92;1.38;;;;;;;;;;5028148;28;20215;-60
2023/08/10 09:33:35;;;;;;;4.85;1.40;;;;;;;;;;5026001;28;20299;-60
2023/08/10 09:36:01;;;;;;;6.72;1.40;;;;;;;;;;5027387;28;20314;-60
2023/08/10 09:38:26;;;;;;;2.92;1.35;;;;;;;;;;5028378;28;20227;-60
2023/08/10 09:41:10;;;;;;;4.40;1.77;;;;;;;;;;5027152;28;20216;-59
2023/08/10 09:43:36;;;;;;;3.05;1.30;;;;;;;;;;5025465;28;20310;-60
2023/08/10 09:46:04;;;;;;;3.75;1.40;;;;;;;;;;5027465;28;20240;-60
2023/08/10 09:48:33;;;;;;;5.15;1.67;;;;;;;;;;5028394;28;20824;-60
2023/08/10 09:50:58;;;;;;;3.38;1.40;;;;;;;;;;5026893;28;20216;-60
2023/08/10 09:53:24;;;;;;;3.38;1.20;;;;;;;;;;5026540;28;20645;-59
2023/08/10 09:55:49;;;;;;;5.82;1.50;;;;;;;;;;5028364;28;20718;-59
2023/08/10 09:58:14;;;;;;;3.80;1.40;;;;;;;;;;5027427;28;20278;-60
2023/08/10 10:00:40;;;;;;;4.63;1.48;;;;;;;;;;5025136;28;20220;-60
2023/08/10 10:03:05;;;;;;;4.22;1.58;;;;;;;;;;5027990;28;20212;-60
2023/08/10 10:05:30;;;;;;;5.03;1.50;;;;;;;;;;5026897;28;20215;-59
2023/08/10 10:07:56;;;;;;;4.20;1.50;;;;;;;;;;5025574;28;20294;-60
2023/08/10 10:10:21;;;;;;;4.18;1.30;;;;;;;;;;5027209;28;20278;-59
2023/08/10 10:12:48;;;;;;;4.47;1.55;;;;;;;;;;5028239;28;20199;-60
2023/08/10 10:15:13;;;;;;;3.20;1.40;;;;;;;;;;5025805;28;20211;-59
2023/08/10 10:17:40;;;;;;;4.20;1.52;;;;;;;;;;5026839;28;20744;-60
2023/08/10 10:20:11;;;;;;;4.80;1.70;;;;;;;;;;5027535;28;20260;-60
2023/08/10 10:22:37;;;;;;;3.72;1.40;;;;;;;;;;5027667;28;20212;-60
2023/08/10 10:25:03;;;;;;;4.03;1.70;;;;;;;;;;5028882;28;20227;-60
2023/08/10 10:27:37;;;;;;;5.65;1.60;;;;;;;;;;5027823;28;20242;-60
2023/08/10 10:30:03;;;;;;;4.05;1.70;;;;;;;;;;5027104;28;20214;-60
2023/08/10 10:32:28;;;;;;;4.55;1.65;;;;;;;;;;5025365;28;20568;-59
2023/08/10 10:34:54;;;;;;;3.75;1.60;;;;;;;;;;5025971;28;20204;-59
2023/08/10 10:37:21;;;;;;;7.15;1.88;;;;;;;;;;5027271;28;20250;-60
2023/08/10 10:39:48;;;;;;;4.25;1.60;;;;;;;;;;5026664;28;20219;-59
2023/08/10 10:42:15;;;;;;;3.30;1.30;;;;;;;;;;5024060;28;20549;-59
2023/08/10 10:45:00;;;;;;;4.20;1.40;;;;;;;;;;5027788;28;20239;-59
2023/08/10 10:47:33;;;;;;;2.88;1.30;;;;;;;;;;5027367;28;20216;-59
2023/08/10 10:49:59;;;;;;;3.78;1.58;;;;;;;;;;5026665;28;20219;-60
2023/08/10 10:52:35;;;;;;;4.85;2.00;;;;;;;;;;5025481;28;21014;-60
2023/08/10 10:55:03;;;;;;;3.60;1.52;;;;;;;;;;5030478;28;20366;-60
2023/08/10 10:57:29;;;;;;;4.88;2.03;;;;;;;;;;5027364;28;20302;-60
2023/08/10 10:59:54;;;;;;;3.55;2.03;;;;;;;;;;5026934;28;20365;-59
2023/08/10 11:02:19;;;;;;;3.38;1.83;;;;;;;;;;5025025;28;20227;-60
2023/08/10 11:04:45;;;;;;;4.22;2.03;;;;;;;;;;5027395;28;20690;-59
2023/08/10 11:07:10;;;;;;;4.45;2.33;;;;;;;;;;5027446;28;20588;-60
2023/08/10 11:09:35;;;;;;;4.28;2.13;;;;;;;;;;5025999;28;20559;-59
2023/08/10 11:12:01;;;;;;;5.38;2.15;;;;;;;;;;5025917;28;20220;-60
2023/08/10 11:14:27;;;;;;;4.03;2.30;;;;;;;;;;5029300;28;20367;-60
2023/08/10 11:16:52;;;;;;;6.30;2.65;;;;;;;;;;5030387;28;20212;-59
2023/08/10 11:19:18;;;;;;;4.43;2.08;;;;;;;;;;5028786;28;20230;-59
2023/08/10 11:21:44;;;;;;;5.00;2.50;;;;;;;;;;5031086;28;20222;-59
2023/08/10 11:24:10;;;;;;;5.03;2.40;;;;;;;;;;5029935;28;20227;-59
2023/08/10 11:26:35;;;;;;;5.97;3.00;;;;;;;;;;5028385;28;20223;-59
2023/08/10 11:29:01;;;;;;;5.25;2.97;;;;;;;;;;5030501;28;20215;-60
2023/08/10 11:31:26;;;;;;;5.20;2.90;;;;;;;;;;5029217;28;20334;-59
2023/08/10 11:33:51;;;;;;;5.32;2.63;;;;;;;;;;5029135;28;20216;-59
2023/08/10 11:36:17;;;;;;;5.38;2.50;;;;;;;;;;5029543;28;20237;-59
2023/08/10 11:38:45;;;;;;;5.35;2.38;;;;;;;;;;5030181;28;20259;-59
2023/08/10 11:41:10;;;;;;;4.05;2.10;;;;;;;;;;5029738;28;20212;-59
2023/08/10 11:43:36;;;;;;;6.43;2.42;;;;;;;;;;5028694;28;20230;-59
2023/08/10 11:46:01;;;;;;;5.35;2.35;;;;;;;;;;5029482;28;20203;-60
2023/08/10 11:48:26;;;;;;;3.80;2.00;;;;;;;;;;5030543;28;20236;-59
2023/08/10 11:50:59;;;;;;;5.50;2.10;;;;;;;;;;5028572;28;20570;-59
2023/08/10 11:53:25;;;;;;;7.10;2.42;;;;;;;;;;5028610;28;20222;-59
2023/08/10 11:55:51;;;;;;;4.45;1.95;;;;;;;;;;5030652;28;20274;-59
2023/08/10 11:58:17;;;;;;;5.32;2.15;;;;;;;;;;5028798;28;20236;-59
2023/08/10 12:00:42;;;;;;;6.53;2.60;;;;;;;;;;5028264;28;20291;-59
2023/08/10 12:03:11;;;;;;;2.90;2.13;;;;;;;;;;5029935;28;20224;-59
2023/08/10 12:05:37;;;;;;;3.60;2.00;;;;;;;;;;5030413;28;20243;-59
2023/08/10 12:08:04;;;;;;;4.07;2.20;;;;;;;;;;5026728;28;20260;-60
2023/08/10 12:10:36;;;;;;;4.45;2.15;;;;;;;;;;5030118;28;20208;-59
2023/08/10 12:13:02;;;;;;;6.40;2.47;;;;;;;;;;5029638;28;20679;-59
2023/08/10 12:15:29;;;;;;;4.60;2.13;;;;;;;;;;5028192;28;20231;-59
2023/08/10 12:17:54;;;;;;;4.50;2.15;;;;;;;;;;5028639;28;20714;-59
2023/08/10 12:20:20;;;;;;;5.43;2.55;;;;;;;;;;5029912;28;21802;-59
2023/08/10 12:22:45;;;;;;;4.32;2.60;;;;;;;;;;5029004;28;20239;-59
2023/08/10 12:25:10;;;;;;;4.43;2.13;;;;;;;;;;5026862;28;20474;-59
2023/08/10 12:27:36;;;;;;;4.80;1.92;;;;;;;;;;5029144;28;21026;-59
2023/08/10 12:30:01;;;;;;;4.75;1.95;;;;;;;;;;5029275;28;20226;-60
2023/08/10 12:32:28;;;;;;;5.28;1.90;;;;;;;;;;5028046;28;20216;-60
2023/08/10 12:34:54;;;;;;;5.35;2.00;;;;;;;;;;5028129;28;20393;-59
2023/08/10 12:37:19;;;;;;;3.60;2.05;;;;;;;;;;5028666;28;20718;-59
2023/08/10 12:39:45;;;;;;;4.03;2.00;;;;;;;;;;5028848;28;20223;-59
2023/08/10 12:42:10;;;;;;;4.78;2.33;;;;;;;;;;5026772;28;20227;-59
2023/08/10 12:44:35;;;;;;;2.72;1.92;;;;;;;;;;5029565;28;20218;-59
2023/08/10 12:47:01;;;;;;;6.40;2.10;;;;;;;;;;5029028;28;20243;-60
2023/08/10 12:49:26;;;;;;;4.63;2.20;;;;;;;;;;5026342;28;20216;-59
2023/08/10 12:51:52;;;;;;;5.25;2.20;;;;;;;;;;5029612;28;20227;-59
2023/08/10 12:54:17;;;;;;;4.93;2.13;;;;;;;;;;5028917;28;20667;-59
2023/08/10 12:56:42;;;;;;;5.05;2.13;;;;;;;;;;5027379;28;20231;-59
2023/08/10 12:59:08;;;;;;;5.18;2.22;;;;;;;;;;5027547;28;20378;-59
2023/08/10 13:01:33;;;;;;;3.70;2.20;;;;;;;;;;5029349;28;20235;-59
2023/08/10 13:03:58;;;;;;;3.58;2.08;;;;;;;;;;5027924;28;20278;-59
2023/08/10 13:06:24;;;;;;;4.57;2.20;;;;;;;;;;5026913;28;20240;-59
2023/08/10 13:08:50;;;;;;;4.40;2.20;;;;;;;;;;5028861;28;20314;-59
2023/08/10 13:11:16;;;;;;;3.95;1.83;;;;;;;;;;5028342;28;20216;-59
2023/08/10 13:13:41;;;;;;;4.10;2.22;;;;;;;;;;5026980;28;20595;-59
2023/08/10 13:16:06;;;;;;;4.95;2.35;;;;;;;;;;5028182;28;20224;-59
2023/08/10 13:18:32;;;;;;;4.35;2.00;;;;;;;;;;5028315;28;20227;-59
2023/08/10 13:20:57;;;;;;;5.03;2.50;;;;;;;;;;5027715;28;20211;-59
2023/08/10 13:23:22;;;;;;;3.58;2.13;;;;;;;;;;5027118;28;20311;-59
2023/08/10 13:25:47;;;;;;;5.15;1.95;;;;;;;;;;5028263;28;20263;-59
2023/08/10 13:28:13;;;;;;;4.13;1.98;;;;;;;;;;5028239;28;20219;-59
2023/08/10 13:30:38;;;;;;;4.28;2.10;;;;;;;;;;5025712;28;20246;-59
2023/08/10 13:33:04;;;;;;;4.13;1.83;;;;;;;;;;5015373;28;20310;-59
2023/08/10 13:35:29;;;;;;;4.32;2.20;;;;;;;;;;5001378;28;20274;-59
2023/08/10 13:37:54;;;;;;;3.88;1.90;;;;;;;;;;5005121;28;20246;-59
2023/08/10 13:40:20;;;;;;;3.30;1.80;;;;;;;;;;5005503;28;20227;-59
2023/08/10 13:42:45;;;;;;;3.10;2.08;;;;;;;;;;5009837;28;20247;-59
2023/08/10 13:45:10;;;;;;;4.20;1.83;;;;;;;;;;5010542;28;20209;-59
2023/08/10 13:47:36;;;;;;;4.15;1.90;;;;;;;;;;5015600;28;20254;-59
2023/08/10 13:50:01;;;;;;;3.90;2.15;;;;;;;;;;5010043;28;21847;-59
2023/08/10 13:52:26;;;;;;;6.82;2.15;;;;;;;;;;5010146;28;20220;-59
2023/08/10 13:54:52;;;;;;;4.95;2.03;;;;;;;;;;5012021;28;20498;-59
2023/08/10 13:57:17;;;;;;;3.22;1.85;;;;;;;;;;5001623;28;20427;-59
2023/08/10 13:59:44;;;;;;;3.25;1.88;;;;;;;;;;5001715;28;20817;-59
2023/08/10 14:02:09;;;;;;;5.15;1.67;;;;;;;;;;5006463;28;20222;-59
2023/08/10 14:04:35;;;;;;;4.53;1.85;;;;;;;;;;5010693;28;20250;-59
2023/08/10 14:07:00;;;;;;;3.40;1.75;;;;;;;;;;5010553;28;20247;-59
2023/08/10 14:09:25;;;;;;;4.90;1.90;;;;;;;;;;5011607;28;20220;-59
2023/08/10 14:11:51;;;;;;;4.00;1.88;;;;;;;;;;5012168;28;20265;-59
2023/08/10 14:14:17;;;;;;;4.68;1.80;;;;;;;;;;5009272;28;20208;-59
2023/08/10 14:16:43;;;;;;;4.50;1.67;;;;;;;;;;5010075;28;20220;-59
2023/08/10 14:19:08;;;;;;;3.10;1.70;;;;;;;;;;5006468;28;20243;-59
2023/08/10 14:21:34;;;;;;;4.43;1.67;;;;;;;;;;5002079;28;20328;-59
2023/08/10 14:24:01;;;;;;;5.40;1.67;;;;;;;;;;5003463;28;20315;-59
2023/08/10 14:26:27;;;;;;;4.22;1.75;;;;;;;;;;5009946;28;20212;-59
2023/08/10 14:28:52;;;;;;;4.47;1.60;;;;;;;;;;5009893;28;20223;-59
2023/08/10 14:31:17;;;;;;;2.63;1.45;;;;;;;;;;5010961;28;20203;-59
2023/08/10 14:33:42;;;;;;;3.92;1.58;;;;;;;;;;5025319;28;20211;-59
2023/08/10 14:36:09;;;;;;;3.00;1.50;;;;;;;;;;5024784;28;20282;-59